sensor_id;sensor_type;location;lat;lon;timestamp;P1;durP1;ratioP1;P2;durP2;ratioP2
41436;SDS011;27178;49.460;10.850;2023-02-15T00:02:05;22.10;;;10.40;;
41436;SDS011;27178;49.460;10.850;2023-02-15T00:04:33;10.77;;;9.60;;
41436;SDS011;27178;49.460;10.850;2023-02-15T00:07:15;19.73;;;12.33;;
41436;SDS011;27178;49.460;10.850;2023-02-15T00:09:46;27.80;;;11.90;;
41436;SDS011;27178;49.460;10.850;2023-02-15T00:12:15;13.83;;;10.30;;
41436;SDS011;27178;49.460;10.850;2023-02-15T00:14:43;12.40;;;11.20;;
41436;SDS011;27178;49.460;10.850;2023-02-15T00:17:12;18.83;;;11.87;;
41436;SDS011;27178;49.460;10.850;2023-02-15T00:19:40;13.27;;;10.67;;
41436;SDS011;27178;49.460;10.850;2023-02-15T00:22:08;13.40;;;11.23;;
41436;SDS011;27178;49.460;10.850;2023-02-15T00:24:37;16.23;;;11.50;;
41436;SDS011;27178;49.460;10.850;2023-02-15T00:27:06;16.83;;;11.33;;
41436;SDS011;27178;49.460;10.850;2023-02-15T00:29:35;27.37;;;11.10;;
41436;SDS011;27178;49.460;10.850;2023-02-15T00:32:03;16.70;;;10.83;;
41436;SDS011;27178;49.460;10.850;2023-02-15T00:34:32;12.77;;;11.47;;
41436;SDS011;27178;49.460;10.850;2023-02-15T00:37:01;18.97;;;10.37;;
41436;SDS011;27178;49.460;10.850;2023-02-15T00:39:29;11.00;;;10.00;;
41436;SDS011;27178;49.460;10.850;2023-02-15T00:41:59;36.10;;;11.40;;
41436;SDS011;27178;49.460;10.850;2023-02-15T00:44:27;32.37;;;11.30;;
41436;SDS011;27178;49.460;10.850;2023-02-15T00:46:56;15.33;;;10.03;;
41436;SDS011;27178;49.460;10.850;2023-02-15T00:49:24;32.83;;;11.30;;
41436;SDS011;27178;49.460;10.850;2023-02-15T00:51:53;16.23;;;10.50;;
41436;SDS011;27178;49.460;10.850;2023-02-15T00:54:21;14.90;;;10.23;;
41436;SDS011;27178;49.460;10.850;2023-02-15T00:56:49;13.47;;;10.87;;
41436;SDS011;27178;49.460;10.850;2023-02-15T00:59:19;12.03;;;10.77;;
41436;SDS011;27178;49.460;10.850;2023-02-15T01:01:47;17.47;;;11.57;;
41436;SDS011;27178;49.460;10.850;2023-02-15T01:04:15;16.20;;;10.17;;
41436;SDS011;27178;49.460;10.850;2023-02-15T01:06:43;14.97;;;10.30;;
41436;SDS011;27178;49.460;10.850;2023-02-15T01:09:12;14.13;;;10.87;;
41436;SDS011;27178;49.460;10.850;2023-02-15T01:11:40;13.63;;;10.57;;
41436;SDS011;27178;49.460;10.850;2023-02-15T01:14:09;15.87;;;10.80;;
41436;SDS011;27178;49.460;10.850;2023-02-15T01:16:38;12.70;;;11.23;;
41436;SDS011;27178;49.460;10.850;2023-02-15T01:19:07;16.10;;;11.67;;
41436;SDS011;27178;49.460;10.850;2023-02-15T01:21:35;24.03;;;11.67;;
41436;SDS011;27178;49.460;10.850;2023-02-15T01:24:03;16.07;;;10.70;;
41436;SDS011;27178;49.460;10.850;2023-02-15T01:26:32;22.07;;;12.80;;
41436;SDS011;27178;49.460;10.850;2023-02-15T01:29:00;22.10;;;11.20;;
41436;SDS011;27178;49.460;10.850;2023-02-15T01:31:28;12.27;;;10.97;;
41436;SDS011;27178;49.460;10.850;2023-02-15T01:33:59;16.40;;;10.53;;
41436;SDS011;27178;49.460;10.850;2023-02-15T01:36:27;11.97;;;10.80;;
41436;SDS011;27178;49.460;10.850;2023-02-15T01:38:57;14.90;;;10.47;;
41436;SDS011;27178;49.460;10.850;2023-02-15T01:41:25;12.70;;;10.70;;
41436;SDS011;27178;49.460;10.850;2023-02-15T01:43:55;24.90;;;10.93;;
41436;SDS011;27178;49.460;10.850;2023-02-15T01:46:26;26.40;;;11.43;;
41436;SDS011;27178;49.460;10.850;2023-02-15T01:49:02;16.30;;;9.73;;
41436;SDS011;27178;49.460;10.850;2023-02-15T01:51:35;12.93;;;11.07;;
41436;SDS011;27178;49.460;10.850;2023-02-15T01:54:08;13.67;;;10.37;;
41436;SDS011;27178;49.460;10.850;2023-02-15T01:56:42;14.10;;;11.10;;
41436;SDS011;27178;49.460;10.850;2023-02-15T01:59:12;12.47;;;11.17;;
41436;SDS011;27178;49.460;10.850;2023-02-15T02:01:44;10.93;;;9.87;;
41436;SDS011;27178;49.460;10.850;2023-02-15T02:04:16;17.77;;;11.70;;
41436;SDS011;27178;49.460;10.850;2023-02-15T02:06:50;36.80;;;11.40;;
41436;SDS011;27178;49.460;10.850;2023-02-15T02:09:20;11.67;;;10.47;;
41436;SDS011;27178;49.460;10.850;2023-02-15T02:11:48;12.13;;;10.80;;
41436;SDS011;27178;49.460;10.850;2023-02-15T02:14:18;12.37;;;9.73;;
41436;SDS011;27178;49.460;10.850;2023-02-15T02:16:48;15.03;;;10.77;;
41436;SDS011;27178;49.460;10.850;2023-02-15T02:22:46;12.77;;;9.97;;
41436;SDS011;27178;49.460;10.850;2023-02-15T02:25:40;15.50;;;12.23;;
41436;SDS011;27178;49.460;10.850;2023-02-15T02:31:40;12.23;;;10.60;;
41436;SDS011;27178;49.460;10.850;2023-02-15T02:34:18;14.50;;;11.70;;
41436;SDS011;27178;49.460;10.850;2023-02-15T02:36:55;12.17;;;10.93;;
41436;SDS011;27178;49.460;10.850;2023-02-15T02:39:33;17.03;;;11.23;;
41436;SDS011;27178;49.460;10.850;2023-02-15T02:42:10;11.83;;;10.57;;
41436;SDS011;27178;49.460;10.850;2023-02-15T02:44:46;43.50;;;12.03;;
41436;SDS011;27178;49.460;10.850;2023-02-15T02:47:18;19.07;;;11.30;;
41436;SDS011;27178;49.460;10.850;2023-02-15T02:49:57;20.07;;;10.53;;
41436;SDS011;27178;49.460;10.850;2023-02-15T02:52:39;12.93;;;11.27;;
41436;SDS011;27178;49.460;10.850;2023-02-15T02:55:10;20.13;;;11.37;;
41436;SDS011;27178;49.460;10.850;2023-02-15T02:57:46;25.20;;;11.63;;
41436;SDS011;27178;49.460;10.850;2023-02-15T03:00:20;26.20;;;12.07;;
41436;SDS011;27178;49.460;10.850;2023-02-15T03:02:51;11.70;;;10.60;;
41436;SDS011;27178;49.460;10.850;2023-02-15T03:05:26;12.20;;;11.00;;
41436;SDS011;27178;49.460;10.850;2023-02-15T03:07:57;28.27;;;11.63;;
41436;SDS011;27178;49.460;10.850;2023-02-15T03:10:32;22.80;;;11.40;;
41436;SDS011;27178;49.460;10.850;2023-02-15T03:13:03;13.47;;;11.40;;
41436;SDS011;27178;49.460;10.850;2023-02-15T03:15:34;22.97;;;12.63;;
41436;SDS011;27178;49.460;10.850;2023-02-15T03:18:28;15.13;;;11.57;;
41436;SDS011;27178;49.460;10.850;2023-02-15T03:21:03;13.77;;;11.50;;
41436;SDS011;27178;49.460;10.850;2023-02-15T03:23:35;13.33;;;11.43;;
41436;SDS011;27178;49.460;10.850;2023-02-15T03:26:05;12.53;;;11.33;;
41436;SDS011;27178;49.460;10.850;2023-02-15T03:28:38;29.30;;;13.07;;
41436;SDS011;27178;49.460;10.850;2023-02-15T03:31:11;12.93;;;11.63;;
41436;SDS011;27178;49.460;10.850;2023-02-15T03:33:42;16.20;;;11.70;;
41436;SDS011;27178;49.460;10.850;2023-02-15T03:36:20;17.23;;;11.93;;
41436;SDS011;27178;49.460;10.850;2023-02-15T03:38:53;34.10;;;13.00;;
41436;SDS011;27178;49.460;10.850;2023-02-15T03:41:27;20.50;;;11.93;;
41436;SDS011;27178;49.460;10.850;2023-02-15T03:44:02;14.50;;;11.37;;
41436;SDS011;27178;49.460;10.850;2023-02-15T03:46:35;19.83;;;12.73;;
41436;SDS011;27178;49.460;10.850;2023-02-15T03:49:11;13.77;;;12.30;;
41436;SDS011;27178;49.460;10.850;2023-02-15T03:51:46;31.77;;;13.40;;
41436;SDS011;27178;49.460;10.850;2023-02-15T03:54:18;14.23;;;12.73;;
41436;SDS011;27178;49.460;10.850;2023-02-15T03:57:04;12.63;;;11.40;;
41436;SDS011;27178;49.460;10.850;2023-02-15T03:59:54;23.23;;;11.60;;
41436;SDS011;27178;49.460;10.850;2023-02-15T04:02:41;13.83;;;12.43;;
41436;SDS011;27178;49.460;10.850;2023-02-15T04:05:18;12.43;;;11.13;;
41436;SDS011;27178;49.460;10.850;2023-02-15T04:07:48;14.57;;;12.33;;
41436;SDS011;27178;49.460;10.850;2023-02-15T04:10:17;16.90;;;12.67;;
41436;SDS011;27178;49.460;10.850;2023-02-15T04:13:03;13.37;;;12.00;;
41436;SDS011;27178;49.460;10.850;2023-02-15T04:15:31;13.37;;;12.07;;
41436;SDS011;27178;49.460;10.850;2023-02-15T04:18:29;24.13;;;13.63;;
41436;SDS011;27178;49.460;10.850;2023-02-15T04:21:15;19.67;;;14.07;;
41436;SDS011;27178;49.460;10.850;2023-02-15T04:24:03;13.03;;;11.80;;
41436;SDS011;27178;49.460;10.850;2023-02-15T04:26:49;26.23;;;13.10;;
41436;SDS011;27178;49.460;10.850;2023-02-15T04:29:19;14.33;;;12.93;;
41436;SDS011;27178;49.460;10.850;2023-02-15T04:31:48;20.10;;;14.43;;
41436;SDS011;27178;49.460;10.850;2023-02-15T04:34:17;15.90;;;13.23;;
41436;SDS011;27178;49.460;10.850;2023-02-15T04:36:45;14.83;;;12.80;;
41436;SDS011;27178;49.460;10.850;2023-02-15T04:39:16;14.10;;;12.57;;
41436;SDS011;27178;49.460;10.850;2023-02-15T04:41:45;14.87;;;12.53;;
41436;SDS011;27178;49.460;10.850;2023-02-15T04:44:14;17.33;;;13.93;;
41436;SDS011;27178;49.460;10.850;2023-02-15T04:46:42;22.27;;;12.77;;
41436;SDS011;27178;49.460;10.850;2023-02-15T04:49:11;22.30;;;13.10;;
41436;SDS011;27178;49.460;10.850;2023-02-15T04:51:40;14.13;;;12.40;;
41436;SDS011;27178;49.460;10.850;2023-02-15T04:54:08;16.90;;;12.53;;
41436;SDS011;27178;49.460;10.850;2023-02-15T04:56:37;22.67;;;12.63;;
41436;SDS011;27178;49.460;10.850;2023-02-15T04:59:06;18.67;;;12.57;;
41436;SDS011;27178;49.460;10.850;2023-02-15T05:01:37;13.93;;;12.33;;
41436;SDS011;27178;49.460;10.850;2023-02-15T05:04:05;14.47;;;12.97;;
41436;SDS011;27178;49.460;10.850;2023-02-15T05:06:40;14.40;;;12.90;;
41436;SDS011;27178;49.460;10.850;2023-02-15T05:09:08;14.17;;;12.67;;
41436;SDS011;27178;49.460;10.850;2023-02-15T05:11:40;13.57;;;12.17;;
41436;SDS011;27178;49.460;10.850;2023-02-15T05:14:09;34.50;;;13.20;;
41436;SDS011;27178;49.460;10.850;2023-02-15T05:16:37;22.33;;;13.23;;
41436;SDS011;27178;49.460;10.850;2023-02-15T05:19:06;25.73;;;14.00;;
41436;SDS011;27178;49.460;10.850;2023-02-15T05:21:34;15.83;;;12.67;;
41436;SDS011;27178;49.460;10.850;2023-02-15T05:24:02;20.07;;;13.00;;
41436;SDS011;27178;49.460;10.850;2023-02-15T05:26:52;18.97;;;12.70;;
41436;SDS011;27178;49.460;10.850;2023-02-15T05:29:38;13.03;;;11.67;;
41436;SDS011;27178;49.460;10.850;2023-02-15T05:32:06;14.10;;;12.63;;
41436;SDS011;27178;49.460;10.850;2023-02-15T05:34:35;21.70;;;13.60;;
41436;SDS011;27178;49.460;10.850;2023-02-15T05:37:03;14.37;;;12.87;;
41436;SDS011;27178;49.460;10.850;2023-02-15T05:39:32;19.97;;;13.23;;
41436;SDS011;27178;49.460;10.850;2023-02-15T05:42:01;15.60;;;13.27;;
41436;SDS011;27178;49.460;10.850;2023-02-15T05:44:29;25.67;;;12.50;;
41436;SDS011;27178;49.460;10.850;2023-02-15T05:46:58;17.53;;;13.17;;
41436;SDS011;27178;49.460;10.850;2023-02-15T05:49:26;25.43;;;13.13;;
41436;SDS011;27178;49.460;10.850;2023-02-15T05:51:54;16.40;;;12.60;;
41436;SDS011;27178;49.460;10.850;2023-02-15T05:54:23;13.73;;;12.30;;
41436;SDS011;27178;49.460;10.850;2023-02-15T05:56:54;13.93;;;12.43;;
41436;SDS011;27178;49.460;10.850;2023-02-15T05:59:23;26.73;;;13.50;;
41436;SDS011;27178;49.460;10.850;2023-02-15T06:01:52;15.30;;;13.13;;
41436;SDS011;27178;49.460;10.850;2023-02-15T06:04:20;17.17;;;13.97;;
41436;SDS011;27178;49.460;10.850;2023-02-15T06:06:49;16.07;;;12.43;;
41436;SDS011;27178;49.460;10.850;2023-02-15T06:09:17;16.17;;;13.10;;
41436;SDS011;27178;49.460;10.850;2023-02-15T06:11:46;39.53;;;13.60;;
41436;SDS011;27178;49.460;10.850;2023-02-15T06:14:14;22.47;;;13.73;;
41436;SDS011;27178;49.460;10.850;2023-02-15T06:16:44;16.70;;;13.23;;
41436;SDS011;27178;49.460;10.850;2023-02-15T06:19:12;13.83;;;12.37;;
41436;SDS011;27178;49.460;10.850;2023-02-15T06:21:41;14.23;;;12.83;;
41436;SDS011;27178;49.460;10.850;2023-02-15T06:24:11;14.50;;;12.97;;
41436;SDS011;27178;49.460;10.850;2023-02-15T06:26:40;19.60;;;12.80;;
41436;SDS011;27178;49.460;10.850;2023-02-15T06:29:08;17.27;;;14.00;;
41436;SDS011;27178;49.460;10.850;2023-02-15T06:31:37;20.20;;;13.47;;
41436;SDS011;27178;49.460;10.850;2023-02-15T06:34:08;14.07;;;12.63;;
41436;SDS011;27178;49.460;10.850;2023-02-15T06:36:36;17.43;;;13.57;;
41436;SDS011;27178;49.460;10.850;2023-02-15T06:39:05;14.17;;;12.70;;
41436;SDS011;27178;49.460;10.850;2023-02-15T06:41:33;14.00;;;12.60;;
41436;SDS011;27178;49.460;10.850;2023-02-15T06:44:02;14.87;;;13.20;;
41436;SDS011;27178;49.460;10.850;2023-02-15T06:46:31;16.10;;;13.90;;
41436;SDS011;27178;49.460;10.850;2023-02-15T06:48:59;15.93;;;14.23;;
41436;SDS011;27178;49.460;10.850;2023-02-15T06:51:29;15.80;;;14.17;;
41436;SDS011;27178;49.460;10.850;2023-02-15T06:53:58;17.33;;;15.00;;
41436;SDS011;27178;49.460;10.850;2023-02-15T06:56:26;15.70;;;14.00;;
41436;SDS011;27178;49.460;10.850;2023-02-15T06:58:54;21.57;;;13.97;;
41436;SDS011;27178;49.460;10.850;2023-02-15T07:01:23;42.60;;;13.10;;
41436;SDS011;27178;49.460;10.850;2023-02-15T07:03:51;23.00;;;13.03;;
41436;SDS011;27178;49.460;10.850;2023-02-15T07:06:19;13.50;;;12.10;;
41436;SDS011;27178;49.460;10.850;2023-02-15T07:08:49;13.00;;;11.70;;
41436;SDS011;27178;49.460;10.850;2023-02-15T07:11:17;16.63;;;11.87;;
41436;SDS011;27178;49.460;10.850;2023-02-15T07:14:03;15.60;;;12.47;;
41436;SDS011;27178;49.460;10.850;2023-02-15T07:16:31;13.40;;;12.03;;
41436;SDS011;27178;49.460;10.850;2023-02-15T07:18:59;13.63;;;12.23;;
41436;SDS011;27178;49.460;10.850;2023-02-15T07:21:28;13.57;;;12.27;;
41436;SDS011;27178;49.460;10.850;2023-02-15T07:23:58;14.63;;;13.17;;
41436;SDS011;27178;49.460;10.850;2023-02-15T07:26:26;14.30;;;12.80;;
41436;SDS011;27178;49.460;10.850;2023-02-15T07:28:54;18.73;;;12.43;;
41436;SDS011;27178;49.460;10.850;2023-02-15T07:31:23;13.27;;;11.97;;
41436;SDS011;27178;49.460;10.850;2023-02-15T07:33:52;15.73;;;14.00;;
41436;SDS011;27178;49.460;10.850;2023-02-15T07:36:20;15.77;;;14.17;;
41436;SDS011;27178;49.460;10.850;2023-02-15T07:38:48;13.53;;;12.10;;
41436;SDS011;27178;49.460;10.850;2023-02-15T07:41:18;24.20;;;13.10;;
41436;SDS011;27178;49.460;10.850;2023-02-15T07:43:47;17.37;;;11.90;;
41436;SDS011;27178;49.460;10.850;2023-02-15T07:46:15;14.40;;;12.90;;
41436;SDS011;27178;49.460;10.850;2023-02-15T07:48:46;18.23;;;13.17;;
41436;SDS011;27178;49.460;10.850;2023-02-15T07:51:14;16.47;;;12.97;;
41436;SDS011;27178;49.460;10.850;2023-02-15T07:53:43;14.83;;;13.07;;
41436;SDS011;27178;49.460;10.850;2023-02-15T07:56:12;13.50;;;12.10;;
41436;SDS011;27178;49.460;10.850;2023-02-15T07:58:43;13.60;;;12.23;;
41436;SDS011;27178;49.460;10.850;2023-02-15T08:01:22;15.13;;;13.50;;
41436;SDS011;27178;49.460;10.850;2023-02-15T08:03:52;14.30;;;12.60;;
41436;SDS011;27178;49.460;10.850;2023-02-15T08:06:22;14.63;;;12.87;;
41436;SDS011;27178;49.460;10.850;2023-02-15T08:08:52;14.20;;;12.60;;
41436;SDS011;27178;49.460;10.850;2023-02-15T08:11:21;13.90;;;12.10;;
41436;SDS011;27178;49.460;10.850;2023-02-15T08:14:02;14.53;;;13.00;;
41436;SDS011;27178;49.460;10.850;2023-02-15T08:16:34;17.50;;;14.57;;
41436;SDS011;27178;49.460;10.850;2023-02-15T08:19:04;14.97;;;13.37;;
41436;SDS011;27178;49.460;10.850;2023-02-15T08:21:34;13.60;;;12.17;;
41436;SDS011;27178;49.460;10.850;2023-02-15T08:24:05;14.03;;;12.60;;
41436;SDS011;27178;49.460;10.850;2023-02-15T08:26:33;14.53;;;13.00;;
41436;SDS011;27178;49.460;10.850;2023-02-15T08:29:04;14.57;;;12.90;;
41436;SDS011;27178;49.460;10.850;2023-02-15T08:31:34;14.10;;;12.57;;
41436;SDS011;27178;49.460;10.850;2023-02-15T08:34:04;16.07;;;14.47;;
41436;SDS011;27178;49.460;10.850;2023-02-15T08:36:32;14.77;;;13.20;;
41436;SDS011;27178;49.460;10.850;2023-02-15T08:39:01;14.73;;;13.23;;
41436;SDS011;27178;49.460;10.850;2023-02-15T08:41:32;16.33;;;13.73;;
41436;SDS011;27178;49.460;10.850;2023-02-15T08:44:03;15.43;;;13.83;;
41436;SDS011;27178;49.460;10.850;2023-02-15T08:46:35;14.03;;;12.47;;
41436;SDS011;27178;49.460;10.850;2023-02-15T08:49:04;15.20;;;13.37;;
41436;SDS011;27178;49.460;10.850;2023-02-15T08:51:33;14.57;;;13.03;;
41436;SDS011;27178;49.460;10.850;2023-02-15T08:54:04;15.23;;;13.57;;
41436;SDS011;27178;49.460;10.850;2023-02-15T08:56:35;15.50;;;13.80;;
41436;SDS011;27178;49.460;10.850;2023-02-15T08:59:07;15.63;;;14.03;;
41436;SDS011;27178;49.460;10.850;2023-02-15T09:01:40;14.20;;;12.70;;
41436;SDS011;27178;49.460;10.850;2023-02-15T09:04:09;14.57;;;12.93;;
41436;SDS011;27178;49.460;10.850;2023-02-15T09:06:40;16.43;;;14.73;;
41436;SDS011;27178;49.460;10.850;2023-02-15T09:09:13;15.17;;;13.20;;
41436;SDS011;27178;49.460;10.850;2023-02-15T09:11:43;16.13;;;13.90;;
41436;SDS011;27178;49.460;10.850;2023-02-15T09:14:14;15.73;;;14.03;;
41436;SDS011;27178;49.460;10.850;2023-02-15T09:16:44;14.60;;;12.90;;
41436;SDS011;27178;49.460;10.850;2023-02-15T09:19:15;14.20;;;12.70;;
41436;SDS011;27178;49.460;10.850;2023-02-15T09:21:44;17.90;;;15.30;;
41436;SDS011;27178;49.460;10.850;2023-02-15T09:24:14;15.47;;;13.80;;
41436;SDS011;27178;49.460;10.850;2023-02-15T09:26:45;16.27;;;14.57;;
41436;SDS011;27178;49.460;10.850;2023-02-15T09:29:16;17.13;;;14.60;;
41436;SDS011;27178;49.460;10.850;2023-02-15T09:31:47;16.87;;;15.07;;
41436;SDS011;27178;49.460;10.850;2023-02-15T09:34:17;17.13;;;14.83;;
41436;SDS011;27178;49.460;10.850;2023-02-15T09:36:47;15.80;;;14.10;;
41436;SDS011;27178;49.460;10.850;2023-02-15T09:39:17;16.20;;;13.77;;
41436;SDS011;27178;49.460;10.850;2023-02-15T09:41:57;16.30;;;14.50;;
41436;SDS011;27178;49.460;10.850;2023-02-15T09:44:56;15.50;;;13.90;;
41436;SDS011;27178;49.460;10.850;2023-02-15T09:47:39;15.33;;;13.63;;
41436;SDS011;27178;49.460;10.850;2023-02-15T09:50:25;16.60;;;14.50;;
41436;SDS011;27178;49.460;10.850;2023-02-15T09:53:09;16.27;;;14.57;;
41436;SDS011;27178;49.460;10.850;2023-02-15T09:55:57;16.10;;;13.70;;
41436;SDS011;27178;49.460;10.850;2023-02-15T09:58:33;15.80;;;14.20;;
41436;SDS011;27178;49.460;10.850;2023-02-15T10:01:13;17.00;;;15.20;;
41436;SDS011;27178;49.460;10.850;2023-02-15T10:03:53;15.30;;;13.70;;
41436;SDS011;27178;49.460;10.850;2023-02-15T10:06:34;15.73;;;14.13;;
41436;SDS011;27178;49.460;10.850;2023-02-15T10:09:22;15.20;;;13.63;;
41436;SDS011;27178;49.460;10.850;2023-02-15T10:12:11;14.80;;;13.23;;
41436;SDS011;27178;49.460;10.850;2023-02-15T10:17:53;15.60;;;14.00;;
41436;SDS011;27178;49.460;10.850;2023-02-15T10:20:40;14.57;;;13.07;;
41436;SDS011;27178;49.460;10.850;2023-02-15T10:23:20;15.10;;;13.53;;
41436;SDS011;27178;49.460;10.850;2023-02-15T10:26:01;14.17;;;12.67;;
41436;SDS011;27178;49.460;10.850;2023-02-15T10:28:42;14.80;;;13.30;;
41436;SDS011;27178;49.460;10.850;2023-02-15T10:31:17;15.10;;;13.60;;
41436;SDS011;27178;49.460;10.850;2023-02-15T10:33:56;14.77;;;13.20;;
41436;SDS011;27178;49.460;10.850;2023-02-15T10:36:39;15.60;;;13.07;;
41436;SDS011;27178;49.460;10.850;2023-02-15T10:39:26;15.23;;;13.63;;
41436;SDS011;27178;49.460;10.850;2023-02-15T10:42:04;15.17;;;13.67;;
41436;SDS011;27178;49.460;10.850;2023-02-15T10:44:41;15.63;;;13.93;;
41436;SDS011;27178;49.460;10.850;2023-02-15T10:47:24;15.80;;;14.17;;
41436;SDS011;27178;49.460;10.850;2023-02-15T10:50:15;15.23;;;13.63;;
41436;SDS011;27178;49.460;10.850;2023-02-15T10:52:57;15.20;;;13.60;;
41436;SDS011;27178;49.460;10.850;2023-02-15T10:55:37;16.63;;;14.93;;
41436;SDS011;27178;49.460;10.850;2023-02-15T10:58:17;15.23;;;13.63;;
41436;SDS011;27178;49.460;10.850;2023-02-15T11:00:55;16.07;;;14.37;;
41436;SDS011;27178;49.460;10.850;2023-02-15T11:03:36;16.70;;;14.90;;
41436;SDS011;27178;49.460;10.850;2023-02-15T11:06:17;16.30;;;14.60;;
41436;SDS011;27178;49.460;10.850;2023-02-15T11:08:49;16.73;;;14.93;;
41436;SDS011;27178;49.460;10.850;2023-02-15T11:11:21;17.27;;;15.47;;
41436;SDS011;27178;49.460;10.850;2023-02-15T11:13:54;17.20;;;15.50;;
41436;SDS011;27178;49.460;10.850;2023-02-15T11:16:29;16.63;;;14.93;;
41436;SDS011;27178;49.460;10.850;2023-02-15T11:19:01;17.10;;;15.40;;
41436;SDS011;27178;49.460;10.850;2023-02-15T11:21:36;17.50;;;15.03;;
41436;SDS011;27178;49.460;10.850;2023-02-15T11:24:09;18.20;;;15.93;;
41436;SDS011;27178;49.460;10.850;2023-02-15T11:26:40;18.97;;;16.43;;
41436;SDS011;27178;49.460;10.850;2023-02-15T11:29:12;16.00;;;14.30;;
41436;SDS011;27178;49.460;10.850;2023-02-15T11:31:45;17.50;;;15.73;;
41436;SDS011;27178;49.460;10.850;2023-02-15T11:34:19;17.73;;;14.97;;
41436;SDS011;27178;49.460;10.850;2023-02-15T11:36:52;17.37;;;15.27;;
41436;SDS011;27178;49.460;10.850;2023-02-15T11:39:26;15.83;;;14.17;;
41436;SDS011;27178;49.460;10.850;2023-02-15T11:41:59;16.27;;;14.60;;
41436;SDS011;27178;49.460;10.850;2023-02-15T11:44:32;17.87;;;15.97;;
41436;SDS011;27178;49.460;10.850;2023-02-15T11:47:07;17.27;;;15.50;;
41436;SDS011;27178;49.460;10.850;2023-02-15T11:49:37;17.60;;;15.20;;
41436;SDS011;27178;49.460;10.850;2023-02-15T11:52:10;17.00;;;15.20;;
41436;SDS011;27178;49.460;10.850;2023-02-15T11:54:42;17.93;;;15.80;;
41436;SDS011;27178;49.460;10.850;2023-02-15T11:57:14;15.67;;;14.07;;
41436;SDS011;27178;49.460;10.850;2023-02-15T11:59:49;17.10;;;15.30;;
41436;SDS011;27178;49.460;10.850;2023-02-15T12:02:21;16.10;;;14.50;;
41436;SDS011;27178;49.460;10.850;2023-02-15T12:04:54;16.83;;;15.00;;
41436;SDS011;27178;49.460;10.850;2023-02-15T12:07:26;17.37;;;15.23;;
41436;SDS011;27178;49.460;10.850;2023-02-15T12:10:01;17.20;;;15.43;;
41436;SDS011;27178;49.460;10.850;2023-02-15T12:12:34;17.60;;;15.80;;
41436;SDS011;27178;49.460;10.850;2023-02-15T12:15:04;18.43;;;15.23;;
41436;SDS011;27178;49.460;10.850;2023-02-15T12:17:34;16.20;;;14.50;;
41436;SDS011;27178;49.460;10.850;2023-02-15T12:20:19;16.13;;;14.53;;
41436;SDS011;27178;49.460;10.850;2023-02-15T12:22:54;15.63;;;14.10;;
41436;SDS011;27178;49.460;10.850;2023-02-15T12:25:29;15.83;;;14.27;;
41436;SDS011;27178;49.460;10.850;2023-02-15T12:28:03;17.40;;;15.60;;
41436;SDS011;27178;49.460;10.850;2023-02-15T12:30:43;17.17;;;15.47;;
41436;SDS011;27178;49.460;10.850;2023-02-15T12:33:13;17.10;;;15.33;;
41436;SDS011;27178;49.460;10.850;2023-02-15T12:35:47;17.70;;;15.97;;
41436;SDS011;27178;49.460;10.850;2023-02-15T12:38:24;17.83;;;15.97;;
41436;SDS011;27178;49.460;10.850;2023-02-15T12:40:57;18.67;;;16.00;;
41436;SDS011;27178;49.460;10.850;2023-02-15T12:43:29;17.60;;;15.83;;
41436;SDS011;27178;49.460;10.850;2023-02-15T12:51:44;17.73;;;15.93;;
41436;SDS011;27178;49.460;10.850;2023-02-15T12:59:50;19.07;;;17.13;;
41436;SDS011;27178;49.460;10.850;2023-02-15T13:02:21;19.97;;;17.97;;
41436;SDS011;27178;49.460;10.850;2023-02-15T13:04:55;19.40;;;17.40;;
41436;SDS011;27178;49.460;10.850;2023-02-15T13:07:29;19.13;;;17.10;;
41436;SDS011;27178;49.460;10.850;2023-02-15T13:10:00;19.10;;;17.10;;
41436;SDS011;27178;49.460;10.850;2023-02-15T13:12:30;18.63;;;16.73;;
41436;SDS011;27178;49.460;10.850;2023-02-15T13:15:00;18.30;;;16.13;;
41436;SDS011;27178;49.460;10.850;2023-02-15T13:17:31;18.10;;;16.33;;
41436;SDS011;27178;49.460;10.850;2023-02-15T13:20:02;17.83;;;15.97;;
41436;SDS011;27178;49.460;10.850;2023-02-15T13:22:35;16.87;;;15.27;;
41436;SDS011;27178;49.460;10.850;2023-02-15T13:25:14;18.40;;;16.43;;
41436;SDS011;27178;49.460;10.850;2023-02-15T13:27:48;20.10;;;18.10;;
41436;SDS011;27178;49.460;10.850;2023-02-15T13:30:22;18.43;;;16.53;;
41436;SDS011;27178;49.460;10.850;2023-02-15T13:32:55;19.37;;;16.60;;
41436;SDS011;27178;49.460;10.850;2023-02-15T13:35:29;17.67;;;15.87;;
41436;SDS011;27178;49.460;10.850;2023-02-15T13:40:58;18.70;;;16.80;;
41436;SDS011;27178;49.460;10.850;2023-02-15T13:43:33;17.37;;;15.57;;
41436;SDS011;27178;49.460;10.850;2023-02-15T13:46:16;17.87;;;16.07;;
41436;SDS011;27178;49.460;10.850;2023-02-15T13:49:03;17.13;;;15.47;;
41436;SDS011;27178;49.460;10.850;2023-02-15T13:51:41;16.37;;;14.77;;
41436;SDS011;27178;49.460;10.850;2023-02-15T13:54:28;16.37;;;14.77;;
41436;SDS011;27178;49.460;10.850;2023-02-15T13:57:18;17.83;;;16.03;;
41436;SDS011;27178;49.460;10.850;2023-02-15T14:00:02;17.47;;;15.80;;
41436;SDS011;27178;49.460;10.850;2023-02-15T14:02:43;17.43;;;15.63;;
41436;SDS011;27178;49.460;10.850;2023-02-15T14:05:31;16.77;;;15.07;;
41436;SDS011;27178;49.460;10.850;2023-02-15T14:08:11;17.03;;;15.33;;
41436;SDS011;27178;49.460;10.850;2023-02-15T14:10:44;16.97;;;15.27;;
41436;SDS011;27178;49.460;10.850;2023-02-15T14:13:28;16.20;;;14.60;;
41436;SDS011;27178;49.460;10.850;2023-02-15T14:16:09;16.87;;;15.27;;
41436;SDS011;27178;49.460;10.850;2023-02-15T14:18:46;18.17;;;16.30;;
41436;SDS011;27178;49.460;10.850;2023-02-15T14:21:19;16.63;;;14.90;;
41436;SDS011;27178;49.460;10.850;2023-02-15T14:23:57;17.07;;;15.37;;
41436;SDS011;27178;49.460;10.850;2023-02-15T14:26:38;17.13;;;15.43;;
41436;SDS011;27178;49.460;10.850;2023-02-15T14:29:18;16.33;;;14.83;;
41436;SDS011;27178;49.460;10.850;2023-02-15T14:31:55;15.30;;;13.85;;
41436;SDS011;27178;49.460;10.850;2023-02-15T14:34:27;15.50;;;14.00;;
41436;SDS011;27178;49.460;10.850;2023-02-15T14:37:05;16.27;;;14.67;;
41436;SDS011;27178;49.460;10.850;2023-02-15T14:39:35;15.73;;;14.27;;
41436;SDS011;27178;49.460;10.850;2023-02-15T14:42:29;15.95;;;14.35;;
41436;SDS011;27178;49.460;10.850;2023-02-15T14:45:06;15.45;;;13.93;;
41436;SDS011;27178;49.460;10.850;2023-02-15T14:47:46;16.00;;;14.50;;
41436;SDS011;27178;49.460;10.850;2023-02-15T14:50:37;14.65;;;13.25;;
41436;SDS011;27178;49.460;10.850;2023-02-15T14:53:24;14.38;;;12.98;;
41436;SDS011;27178;49.460;10.850;2023-02-15T14:56:05;14.30;;;13.00;;
41436;SDS011;27178;49.460;10.850;2023-02-15T14:59:00;15.10;;;13.70;;
41436;SDS011;27178;49.460;10.850;2023-02-15T15:01:54;14.05;;;12.70;;
41436;SDS011;27178;49.460;10.850;2023-02-15T15:04:29;14.40;;;13.07;;
41436;SDS011;27178;49.460;10.850;2023-02-15T15:07:07;16.67;;;14.77;;
41436;SDS011;27178;49.460;10.850;2023-02-15T15:09:42;15.68;;;14.18;;